createdAt,value
2018-08-20T00:00:31.381Z,56.9
2018-08-20T00:01:31.471Z,57.2
2018-08-20T00:02:31.370Z,56.61
2018-08-20T00:03:31.373Z,56.74
2018-08-20T00:04:31.425Z,56.2
2018-08-20T00:05:31.410Z,56.24
2018-08-20T00:06:31.392Z,56.71
2018-08-20T00:07:31.397Z,57.16
2018-08-20T00:08:31.557Z,56.95
2018-08-20T00:09:31.427Z,57.65
2018-08-20T00:10:31.413Z,57.94
2018-08-20T00:11:31.522Z,58.07
2018-08-20T00:12:31.400Z,58
2018-08-20T00:13:31.407Z,58.04
2018-08-20T00:14:31.398Z,58.28
2018-08-20T00:15:31.420Z,58.18
2018-08-20T00:16:31.456Z,58.54
2018-08-20T00:17:31.410Z,58.61
2018-08-20T00:18:31.462Z,58.47
2018-08-20T00:19:31.432Z,58.01
2018-08-20T00:20:31.406Z,58.88
2018-08-20T00:21:31.730Z,59.17
2018-08-20T00:22:31.503Z,59.33
2018-08-20T00:23:31.493Z,59.22
2018-08-20T00:24:31.399Z,59.3
2018-08-20T00:25:31.535Z,59.17
2018-08-20T00:26:31.375Z,59.4
2018-08-20T00:27:31.429Z,58.98
2018-08-20T00:28:31.383Z,58.64
2018-08-20T00:29:31.437Z,58.72
2018-08-20T00:30:31.486Z,58.96
2018-08-20T00:31:31.516Z,58.29
2018-08-20T00:32:31.417Z,58.28
2018-08-20T00:33:31.529Z,59.05
2018-08-20T00:34:31.397Z,59.48
2018-08-20T00:35:31.497Z,59.42
2018-08-20T00:36:31.393Z,59.47
2018-08-20T00:37:31.375Z,59.59
2018-08-20T00:38:31.425Z,59.68
2018-08-20T00:39:31.468Z,59.75
2018-08-20T00:40:31.442Z,59.83
2018-08-20T00:41:31.634Z,59.98
2018-08-20T00:42:31.604Z,60.1
2018-08-20T00:43:31.500Z,60.4
2018-08-20T00:44:31.405Z,59.78
2018-08-20T00:45:31.491Z,60.08
2018-08-20T00:46:31.423Z,59.55
2018-08-20T00:47:32.073Z,59.76
2018-08-20T00:48:31.371Z,59.65
2018-08-20T00:49:31.502Z,60.01
2018-08-20T00:50:31.595Z,59.02
2018-08-20T00:51:31.443Z,58.75
2018-08-20T00:52:31.463Z,58.58
2018-08-20T00:53:31.412Z,59.15
2018-08-20T00:54:31.377Z,59.93
2018-08-20T00:55:31.520Z,59.42
2018-08-20T00:56:31.417Z,59.92
2018-08-20T00:57:31.390Z,59.58
2018-08-20T00:58:31.443Z,59.29
2018-08-20T00:59:32.175Z,59.58
2018-08-20T01:00:31.757Z,59.87
2018-08-20T01:01:31.391Z,59.84
2018-08-20T01:02:31.391Z,60.04
2018-08-20T01:03:31.392Z,60.17
2018-08-20T01:04:31.469Z,59.83
2018-08-20T01:05:31.463Z,60.41
2018-08-20T01:06:31.400Z,60.13
2018-08-20T01:07:31.381Z,59.68
2018-08-20T01:08:31.367Z,59.71
2018-08-20T01:09:31.372Z,59.76
2018-08-20T01:10:31.415Z,60.1
2018-08-20T01:11:31.358Z,60.45
2018-08-20T01:12:31.360Z,60.66
2018-08-20T01:13:31.391Z,60.72
2018-08-20T01:14:31.370Z,60.56
2018-08-20T01:15:31.359Z,60.67
2018-08-20T01:16:31.431Z,60.01
2018-08-20T01:17:31.500Z,60.65
2018-08-20T01:18:31.432Z,60.71
2018-08-20T01:19:31.482Z,61.1
2018-08-20T01:20:31.449Z,60.68
2018-08-20T01:21:31.350Z,59.93
2018-08-20T01:22:31.596Z,60.59
2018-08-20T01:23:31.433Z,60.74
2018-08-20T01:24:31.546Z,60.88
2018-08-20T01:25:32.105Z,60.56
2018-08-20T01:26:31.415Z,60.56
2018-08-20T01:27:31.786Z,60.76
2018-08-20T01:28:31.413Z,60.34
2018-08-20T01:29:31.485Z,60.99
2018-08-20T01:30:31.563Z,60.52
2018-08-20T01:31:31.543Z,60.78
2018-08-20T01:32:31.436Z,61.25
2018-08-20T01:33:31.526Z,61.44
2018-08-20T01:34:31.539Z,61.23
2018-08-20T01:35:31.554Z,61.04
2018-08-20T01:36:31.570Z,60.6
2018-08-20T01:37:31.409Z,60.49
2018-08-20T01:38:31.378Z,60.46
2018-08-20T01:39:31.548Z,61.28
2018-08-20T01:40:31.431Z,61.35
2018-08-20T01:41:31.353Z,61.58
2018-08-20T01:42:31.446Z,61.23
2018-08-20T01:43:31.371Z,61.43
2018-08-20T01:44:31.679Z,61.67
2018-08-20T01:45:31.394Z,61.72
2018-08-20T01:46:31.394Z,61.73
2018-08-20T01:47:31.366Z,61.56
2018-08-20T01:48:31.478Z,61.36
2018-08-20T01:49:31.380Z,61.82
2018-08-20T01:50:31.388Z,61.61
2018-08-20T01:51:31.600Z,61.43
2018-08-20T01:52:31.417Z,61.38
2018-08-20T01:53:31.423Z,61.39
2018-08-20T01:54:31.416Z,61.16
2018-08-20T01:55:31.421Z,61.39
2018-08-20T01:56:31.434Z,61.92
2018-08-20T01:57:31.667Z,62.27
2018-08-20T01:58:32.290Z,61.65
2018-08-20T01:59:31.597Z,61.46
2018-08-20T02:00:31.535Z,61.93
2018-08-20T02:01:31.395Z,61.75
2018-08-20T02:02:31.533Z,62.06
2018-08-20T02:03:31.603Z,62.19
2018-08-20T02:04:31.541Z,62.46
2018-08-20T02:05:31.494Z,61.98
2018-08-20T02:06:31.535Z,62.09
2018-08-20T02:07:32.225Z,62.12
2018-08-20T02:08:31.478Z,62.39
2018-08-20T02:09:31.794Z,62.21
2018-08-20T02:10:31.427Z,61.62
2018-08-20T02:11:31.496Z,61.68
2018-08-20T02:12:31.470Z,61.56
2018-08-20T02:13:31.553Z,61.66
2018-08-20T02:14:31.484Z,61.97
2018-08-20T02:15:31.462Z,61.91
2018-08-20T02:16:31.412Z,62.18
2018-08-20T02:17:31.592Z,62.05
2018-08-20T02:18:31.894Z,62.04
2018-08-20T02:19:31.443Z,62.02
2018-08-20T02:20:31.582Z,62.26
2018-08-20T02:21:31.438Z,61.95
2018-08-20T02:22:31.437Z,61.79
2018-08-20T02:23:31.357Z,62.57
2018-08-20T02:24:31.415Z,62.69
2018-08-20T02:25:31.385Z,62.49
2018-08-20T02:26:31.584Z,61.98
2018-08-20T02:27:31.765Z,62.14
2018-08-20T02:28:31.410Z,62.38
2018-08-20T02:29:31.483Z,62.01
2018-08-20T02:30:31.365Z,62.4
2018-08-20T02:31:31.352Z,62.55
2018-08-20T02:32:31.434Z,61.72
2018-08-20T02:33:31.753Z,61.92
2018-08-20T02:34:31.551Z,62.51
2018-08-20T02:35:31.457Z,62.34
2018-08-20T02:36:31.823Z,62.47
2018-08-20T02:37:31.414Z,61.99
2018-08-20T02:38:31.444Z,61.68
2018-08-20T02:39:31.398Z,62.29
2018-08-20T02:40:32.076Z,61.84
2018-08-20T02:41:31.344Z,62.03
2018-08-20T02:42:31.503Z,62.41
2018-08-20T02:43:31.353Z,62.55
2018-08-20T02:44:31.493Z,62.3
2018-08-20T02:45:31.469Z,62.76
2018-08-20T02:46:31.444Z,62.84
2018-08-20T02:47:31.421Z,62.58
2018-08-20T02:48:31.342Z,62.83
2018-08-20T02:49:31.402Z,63.24
2018-08-20T02:50:31.393Z,62.58
2018-08-20T02:51:31.344Z,62.47
2018-08-20T02:52:31.520Z,63.19
2018-08-20T02:53:31.360Z,63.17
2018-08-20T02:54:31.339Z,63.31
2018-08-20T02:55:31.332Z,62.7
2018-08-20T02:56:31.362Z,62.78
2018-08-20T02:57:31.366Z,63.13
2018-08-20T02:58:31.363Z,63.64
2018-08-20T02:59:31.321Z,63.3
2018-08-20T03:00:31.440Z,63.16
2018-08-20T03:01:31.358Z,62.93
2018-08-20T03:02:31.408Z,62.65
2018-08-20T03:03:31.684Z,63.05
2018-08-20T03:04:31.458Z,63.23
2018-08-20T03:05:31.431Z,63
2018-08-20T03:06:31.377Z,63.29
2018-08-20T03:07:31.455Z,63.41
2018-08-20T03:08:31.383Z,63.83
2018-08-20T03:09:31.450Z,63.6
2018-08-20T03:10:31.341Z,63.74
2018-08-20T03:11:31.742Z,62.98
2018-08-20T03:12:31.410Z,63.33
2018-08-20T03:13:31.596Z,63.69
2018-08-20T03:14:31.489Z,64.06
2018-08-20T03:15:31.388Z,63.57
2018-08-20T03:16:31.925Z,63.57
2018-08-20T03:17:31.958Z,63.04
2018-08-20T03:18:31.360Z,63.04
2018-08-20T03:19:31.545Z,63.32
2018-08-20T03:20:31.449Z,62.86
2018-08-20T03:21:31.534Z,63.62
2018-08-20T03:22:32.078Z,62.95
2018-08-20T03:23:31.483Z,63.92
2018-08-20T03:24:31.549Z,64.38
2018-08-20T03:25:31.388Z,63.66
2018-08-20T03:26:31.353Z,64.47
2018-08-20T03:27:31.375Z,64.15
2018-08-20T03:28:31.519Z,64.19
2018-08-20T03:29:31.399Z,63.78
2018-08-20T03:30:31.623Z,63.66
2018-08-20T03:31:31.826Z,64.21
2018-08-20T03:32:31.569Z,64.76
2018-08-20T03:33:31.544Z,65.04
2018-08-20T03:34:31.388Z,65.16
2018-08-20T03:35:31.471Z,63.91
2018-08-20T03:36:31.442Z,63.94
2018-08-20T03:37:31.390Z,65.08
2018-08-20T03:38:31.379Z,65.16
2018-08-20T03:39:31.377Z,64.97
2018-08-20T03:40:31.365Z,64.73
2018-08-20T03:41:31.679Z,65.16
2018-08-20T03:42:31.431Z,64.81
2018-08-20T03:43:31.594Z,64.78
2018-08-20T03:44:31.562Z,64.39
2018-08-20T03:45:31.486Z,65.08
2018-08-20T03:46:31.411Z,64.24
2018-08-20T03:47:31.368Z,64.84
2018-08-20T03:48:31.569Z,65.19
2018-08-20T03:49:31.622Z,65.26
2018-08-20T03:50:32.081Z,65.42
2018-08-20T03:51:31.653Z,65.51
2018-08-20T03:52:31.548Z,65.12
2018-08-20T03:53:31.379Z,65.38
2018-08-20T03:54:31.397Z,64.98
2018-08-20T03:55:31.370Z,65.61
2018-08-20T03:56:31.379Z,65.68
2018-08-20T03:57:31.344Z,65.41
2018-08-20T03:58:31.388Z,65.33
2018-08-20T03:59:31.347Z,65.61
2018-08-20T04:00:31.498Z,64.91
2018-08-20T04:01:31.368Z,65.03
2018-08-20T04:02:31.316Z,64.86
2018-08-20T04:03:31.386Z,65.47
2018-08-20T04:04:31.355Z,65.67
2018-08-20T04:05:31.400Z,65.33
2018-08-20T04:06:31.404Z,65.29
2018-08-20T04:07:31.366Z,65.44
2018-08-20T04:08:31.326Z,65.64
2018-08-20T04:09:31.418Z,65.79
2018-08-20T04:10:31.377Z,65.37
2018-08-20T04:11:31.337Z,65.88
2018-08-20T04:12:31.331Z,65.73
2018-08-20T04:13:31.360Z,65.73
2018-08-20T04:14:31.386Z,65.75
2018-08-20T04:15:31.335Z,65.24
2018-08-20T04:16:31.374Z,65.77
2018-08-20T04:17:31.407Z,65.2
2018-08-20T04:18:31.446Z,65.61
2018-08-20T04:19:31.354Z,65.51
2018-08-20T04:20:31.395Z,65.06
2018-08-20T04:21:31.340Z,64.64
2018-08-20T04:22:31.308Z,65.38
2018-08-20T04:23:31.382Z,65.25
2018-08-20T04:24:31.344Z,65.26
2018-08-20T04:25:31.410Z,65.31
2018-08-20T04:26:31.342Z,64.86
2018-08-20T04:27:31.672Z,64.82
2018-08-20T04:28:31.351Z,64.33
2018-08-20T04:29:31.360Z,64.29
2018-08-20T04:30:31.522Z,64.52
2018-08-20T04:31:31.332Z,64.57
2018-08-20T04:32:31.633Z,64.83
2018-08-20T04:33:31.339Z,65.21
2018-08-20T04:34:31.363Z,65.23
2018-08-20T04:35:31.333Z,64.91
2018-08-20T04:36:31.788Z,65.67
2018-08-20T04:37:31.445Z,65.78
2018-08-20T04:38:31.411Z,65.64
2018-08-20T04:39:31.336Z,65.6
2018-08-20T04:40:31.351Z,65.53
2018-08-20T04:41:31.504Z,65.53
2018-08-20T04:42:31.336Z,65.17
2018-08-20T04:43:31.418Z,64.9
2018-08-20T04:44:31.361Z,64.86
2018-08-20T04:45:31.459Z,64.91
2018-08-20T04:46:31.415Z,64.42
2018-08-20T04:47:31.391Z,64.57
2018-08-20T04:48:31.572Z,64.64
2018-08-20T04:49:31.351Z,64.3
2018-08-20T04:50:33.265Z,64.72
2018-08-20T04:51:32.547Z,65.26
2018-08-20T04:52:31.532Z,64.4
2018-08-20T04:53:31.409Z,64.56
2018-08-20T04:54:31.539Z,64.51
2018-08-20T04:55:31.371Z,64.71
2018-08-20T04:56:31.429Z,65
2018-08-20T04:57:31.352Z,64.99
2018-08-20T04:58:31.395Z,64.37
2018-08-20T04:59:31.314Z,64.34
2018-08-20T05:00:31.345Z,64.74
2018-08-20T05:01:31.502Z,64.02
2018-08-20T05:02:31.400Z,64.05
2018-08-20T05:03:31.540Z,64.83
2018-08-20T05:04:31.493Z,64.87
2018-08-20T05:05:31.426Z,64.65
2018-08-20T05:06:31.415Z,64.65
2018-08-20T05:07:31.317Z,64.3
2018-08-20T05:08:31.540Z,64.51
2018-08-20T05:09:31.404Z,64.34
2018-08-20T05:10:31.445Z,64.4
2018-08-20T05:11:31.466Z,64.7
2018-08-20T05:12:31.445Z,64.39
2018-08-20T05:13:31.305Z,64.68
2018-08-20T05:14:31.380Z,64.51
2018-08-20T05:15:31.441Z,64.81
2018-08-20T05:16:31.334Z,64.83
2018-08-20T05:17:31.324Z,64.82
2018-08-20T05:18:31.299Z,64.85
2018-08-20T05:19:31.341Z,64.92
2018-08-20T05:20:31.301Z,64.76
2018-08-20T05:21:31.347Z,65.13
2018-08-20T05:22:31.352Z,64.55
2018-08-20T05:23:31.340Z,64.67
2018-08-20T05:24:31.392Z,65.14
2018-08-20T05:25:31.324Z,65.3
2018-08-20T05:26:31.353Z,64.83
2018-08-20T05:27:31.315Z,64.65
2018-08-20T05:28:31.360Z,65.03
2018-08-20T05:29:32.075Z,64.94
2018-08-20T05:30:31.312Z,64.94
2018-08-20T05:31:31.320Z,65.22
2018-08-20T05:32:31.330Z,65.96
2018-08-20T05:33:31.332Z,65.55
2018-08-20T05:34:31.341Z,64.86
2018-08-20T05:35:31.303Z,65.84
2018-08-20T05:36:31.376Z,65.3
2018-08-20T05:37:31.287Z,65.64
2018-08-20T05:38:31.502Z,65.12
2018-08-20T05:39:31.735Z,65.46
2018-08-20T05:40:31.333Z,64.76
2018-08-20T05:41:31.397Z,65.19
2018-08-20T05:42:31.372Z,64.85
2018-08-20T05:43:31.401Z,64.84
2018-08-20T05:44:31.725Z,65.72
2018-08-20T05:45:31.340Z,65.72
2018-08-20T05:46:31.421Z,65.96
2018-08-20T05:47:31.350Z,65.42
2018-08-20T05:48:31.437Z,64.7
2018-08-20T05:49:31.456Z,65.34
2018-08-20T05:50:31.728Z,64.8
2018-08-20T05:51:31.314Z,65.32
2018-08-20T05:52:31.659Z,65.31
2018-08-20T05:53:31.329Z,65.39
2018-08-20T05:54:31.479Z,64.94
2018-08-20T05:55:31.295Z,65.52
2018-08-20T05:56:31.441Z,65.6
2018-08-20T05:57:31.392Z,65.69
2018-08-20T05:58:31.456Z,65.51
2018-08-20T05:59:31.674Z,65.03
2018-08-20T06:00:31.294Z,64.97
2018-08-20T06:01:31.344Z,65.33
2018-08-20T06:02:31.456Z,64.97
2018-08-20T06:03:31.289Z,65.05
2018-08-20T06:04:31.340Z,66
2018-08-20T06:05:32.258Z,65.79
2018-08-20T06:06:31.388Z,65.34
2018-08-20T06:07:31.302Z,64.68
2018-08-20T06:08:31.307Z,65.82
2018-08-20T06:09:31.426Z,65.46
2018-08-20T06:10:31.425Z,65.22
2018-08-20T06:11:31.757Z,65.5
2018-08-20T06:12:31.325Z,65.5
2018-08-20T06:13:31.486Z,65.49
2018-08-20T06:14:32.185Z,65.83
2018-08-20T06:15:31.285Z,65.94
2018-08-20T06:16:31.339Z,65.67
2018-08-20T06:17:31.326Z,65.56
2018-08-20T06:18:31.352Z,65.71
2018-08-20T06:19:31.970Z,65.21
2018-08-20T06:20:31.414Z,65.36
2018-08-20T06:21:31.437Z,65.32
2018-08-20T06:22:32.607Z,65.45
2018-08-20T06:23:31.309Z,65.18
2018-08-20T06:24:31.294Z,64.77
2018-08-20T06:25:31.397Z,65.08
2018-08-20T06:26:31.289Z,65.34
2018-08-20T06:27:31.282Z,64.83
2018-08-20T06:28:31.644Z,65.21
2018-08-20T06:29:31.288Z,65.03
2018-08-20T06:30:31.295Z,65.15
2018-08-20T06:31:31.728Z,64.83
2018-08-20T06:32:31.308Z,65.03
2018-08-20T06:33:31.309Z,65.09
2018-08-20T06:34:31.314Z,64.68
2018-08-20T06:35:31.326Z,64.41
2018-08-20T06:36:31.363Z,64.92
2018-08-20T06:37:31.344Z,64.85
2018-08-20T06:38:31.284Z,64.29
2018-08-20T06:39:31.292Z,64.34
2018-08-20T06:40:31.298Z,64.55
2018-08-20T06:41:31.708Z,64.47
2018-08-20T06:42:31.338Z,64.73
2018-08-20T06:43:31.340Z,64.27
2018-08-20T06:44:31.327Z,64.47
2018-08-20T06:45:34.224Z,64.32
2018-08-20T06:46:31.361Z,64.02
2018-08-20T06:47:31.323Z,64.61
2018-08-20T06:48:32.135Z,64.59
2018-08-20T06:49:32.018Z,64.58
2018-08-20T06:50:31.301Z,64.55
2018-08-20T06:51:31.308Z,64.52
2018-08-20T06:52:31.372Z,64.24
2018-08-20T06:53:31.433Z,64.15
2018-08-20T06:54:31.732Z,63.97
2018-08-20T06:55:31.327Z,64.06
2018-08-20T06:56:31.347Z,64.27
2018-08-20T06:57:31.508Z,64.62
2018-08-20T06:58:31.310Z,64.04
2018-08-20T06:59:31.371Z,63.92
2018-08-20T07:00:31.287Z,64.06
2018-08-20T07:01:31.342Z,64.04
2018-08-20T07:02:31.387Z,63.54
2018-08-20T07:03:31.315Z,63.32
2018-08-20T07:04:31.300Z,63.64
2018-08-20T07:05:31.330Z,63.81
2018-08-20T07:06:31.807Z,63.59
2018-08-20T07:07:31.391Z,63.64
2018-08-20T07:08:31.425Z,64.06
2018-08-20T07:09:31.290Z,63.81
2018-08-20T07:10:31.437Z,63.65
2018-08-20T07:11:31.384Z,63.34
2018-08-20T07:12:31.486Z,63.65
2018-08-20T07:13:31.332Z,63.43
2018-08-20T07:14:31.466Z,63.48
2018-08-20T07:15:31.332Z,63.63
2018-08-20T07:16:31.356Z,63.37
2018-08-20T07:17:31.894Z,63.1
2018-08-20T07:18:31.629Z,63.3
2018-08-20T07:19:31.352Z,62.9
2018-08-20T07:20:31.306Z,62.92
2018-08-20T07:21:31.420Z,62.8
2018-08-20T07:22:31.371Z,62.94
2018-08-20T07:23:32.184Z,62.99
2018-08-20T07:24:32.146Z,63.13
2018-08-20T07:25:31.301Z,63.06
2018-08-20T07:26:31.437Z,62.71
2018-08-20T07:27:31.275Z,62.51
2018-08-20T07:28:31.301Z,62.6
2018-08-20T07:29:31.294Z,62.76
2018-08-20T07:30:31.273Z,62.84
2018-08-20T07:31:31.352Z,62.54
2018-08-20T07:32:31.279Z,62.9
2018-08-20T07:33:31.511Z,63.25
2018-08-20T07:34:31.294Z,62.79
2018-08-20T07:35:31.529Z,62.19
2018-08-20T07:36:31.285Z,62.53
2018-08-20T07:37:31.320Z,62.3
2018-08-20T07:38:31.475Z,62.2
2018-08-20T07:39:31.399Z,61.85
2018-08-20T07:40:31.516Z,62.11
2018-08-20T07:41:31.348Z,62.07
2018-08-20T07:42:31.777Z,62.31
2018-08-20T07:43:31.287Z,61.99
2018-08-20T07:44:31.306Z,61.85
2018-08-20T07:45:31.450Z,61.59
2018-08-20T07:46:31.401Z,61.4
2018-08-20T07:47:31.325Z,61.19
2018-08-20T07:48:31.292Z,60.85
2018-08-20T07:49:31.314Z,60.85
2018-08-20T07:50:31.302Z,61.28
2018-08-20T07:51:31.290Z,61.59
2018-08-20T07:52:31.337Z,61.53
2018-08-20T07:53:31.266Z,62.15
2018-08-20T07:54:31.261Z,61.75
2018-08-20T07:55:31.526Z,61.35
2018-08-20T07:56:31.275Z,60.82
2018-08-20T07:57:31.328Z,61.02
2018-08-20T07:58:31.360Z,60.44
2018-08-20T07:59:31.270Z,60.4
2018-08-20T08:00:31.292Z,60.44
2018-08-20T08:01:31.297Z,60.32
2018-08-20T08:02:31.325Z,60.29
2018-08-20T08:03:31.260Z,60.18
2018-08-20T08:04:31.288Z,60.39
2018-08-20T08:05:31.361Z,60.64
2018-08-20T08:06:31.299Z,60.7
2018-08-20T08:07:31.260Z,60.23
2018-08-20T08:08:31.269Z,59.94
2018-08-20T08:09:31.370Z,60.03
2018-08-20T08:10:31.303Z,59.97
2018-08-20T08:11:31.339Z,60.19
2018-08-20T08:12:31.271Z,60.09
2018-08-20T08:13:31.359Z,59.81
2018-08-20T08:14:31.264Z,59.36
2018-08-20T08:15:31.308Z,59.15
2018-08-20T08:16:31.316Z,59.49
2018-08-20T08:17:31.491Z,60
2018-08-20T08:18:31.280Z,60.26
2018-08-20T08:19:31.756Z,59.85
2018-08-20T08:20:31.294Z,58.97
2018-08-20T08:21:31.328Z,59.22
2018-08-20T08:22:31.334Z,59.65
2018-08-20T08:23:31.264Z,59.54
2018-08-20T08:24:31.304Z,59.23
2018-08-20T08:25:31.401Z,58.82
2018-08-20T08:26:31.659Z,58.68
2018-08-20T08:27:31.311Z,58.41
2018-08-20T08:28:31.288Z,58.33
2018-08-20T08:29:31.774Z,57.96
2018-08-20T08:30:31.346Z,58.27
2018-08-20T08:31:31.269Z,58.25
2018-08-20T08:32:31.383Z,57.91
2018-08-20T08:33:31.281Z,58.24
2018-08-20T08:34:31.407Z,57.81
2018-08-20T08:35:31.319Z,57.59
2018-08-20T08:36:31.434Z,57.63
2018-08-20T08:37:31.272Z,58.1
2018-08-20T08:38:31.283Z,57.76
2018-08-20T08:39:31.912Z,58.06
2018-08-20T08:40:31.287Z,57.79
2018-08-20T08:41:31.251Z,57.6
2018-08-20T08:42:31.333Z,58.09
2018-08-20T08:43:31.297Z,58.03
2018-08-20T08:44:31.292Z,57.61
2018-08-20T08:45:31.234Z,58
2018-08-20T08:46:31.312Z,57.71
2018-08-20T08:47:31.253Z,57.63
2018-08-20T08:48:31.465Z,57.86
2018-08-20T08:49:31.756Z,57.64
2018-08-20T08:50:31.268Z,57.33
2018-08-20T08:51:31.266Z,57.44
2018-08-20T08:52:31.273Z,56.84
2018-08-20T08:53:31.345Z,56.75
2018-08-20T08:54:31.251Z,56.81
2018-08-20T08:55:31.363Z,56.8
2018-08-20T08:56:31.350Z,56.54
2018-08-20T08:57:31.262Z,56.07
2018-08-20T08:58:31.422Z,56.09
2018-08-20T08:59:31.716Z,56.3
2018-08-20T09:00:31.593Z,56.1
2018-08-20T09:01:31.314Z,56.58
2018-08-20T09:02:31.285Z,55.79
2018-08-20T09:03:31.317Z,55.36
2018-08-20T09:04:31.365Z,55.25
2018-08-20T09:05:31.357Z,55.18
2018-08-20T09:06:31.281Z,55.87
2018-08-20T09:07:31.263Z,55.56
2018-08-20T09:08:31.252Z,54.85
2018-08-20T09:09:31.676Z,55.16
2018-08-20T09:10:31.273Z,53.96
2018-08-20T09:11:31.291Z,54.5
2018-08-20T09:12:31.304Z,54.8
2018-08-20T09:13:31.254Z,54.43
2018-08-20T09:14:31.256Z,54.48
2018-08-20T09:15:31.237Z,54.23
2018-08-20T09:16:31.285Z,54.43
2018-08-20T09:17:31.246Z,54.67
2018-08-20T09:18:31.280Z,54.22
2018-08-20T09:19:31.769Z,54.39
2018-08-20T09:20:31.466Z,53.67
2018-08-20T09:21:31.276Z,53.42
2018-08-20T09:22:31.631Z,53.51
2018-08-20T09:23:31.263Z,54.14
2018-08-20T09:24:31.253Z,54.3
2018-08-20T09:25:31.254Z,53.74
2018-08-20T09:26:31.258Z,53.76
2018-08-20T09:27:31.254Z,54.35
2018-08-20T09:28:31.334Z,53.63
2018-08-20T09:29:31.751Z,53.23
2018-08-20T09:30:31.278Z,53.68
2018-08-20T09:31:31.412Z,53.19
2018-08-20T09:32:31.280Z,52.89
2018-08-20T09:33:31.338Z,52.99
2018-08-20T09:34:31.375Z,53.36
2018-08-20T09:35:31.376Z,52.94
2018-08-20T09:36:31.427Z,52.61
2018-08-20T09:37:31.276Z,52.11
2018-08-20T09:38:31.258Z,52.4
2018-08-20T09:39:31.703Z,52.33
2018-08-20T09:40:31.243Z,52.67
2018-08-20T09:41:31.309Z,52.59
2018-08-20T09:42:31.224Z,52.73
2018-08-20T09:43:31.427Z,53.07
2018-08-20T09:44:31.262Z,53.23
2018-08-20T09:45:31.306Z,52.66
2018-08-20T09:46:31.337Z,52.27
2018-08-20T09:47:31.244Z,52.45
2018-08-20T09:48:31.531Z,52.29
2018-08-20T09:49:31.740Z,52.19
2018-08-20T09:50:31.245Z,51.53
2018-08-20T09:51:31.371Z,51.01
2018-08-20T09:52:31.353Z,50.53
2018-08-20T09:53:31.795Z,50.99
2018-08-20T09:54:31.262Z,51.22
2018-08-20T09:55:31.299Z,51.41
2018-08-20T09:56:31.970Z,51.63
2018-08-20T09:57:31.250Z,50.94
2018-08-20T09:58:31.368Z,51.2
2018-08-20T09:59:31.778Z,51.44
2018-08-20T10:00:31.501Z,50.96
2018-08-20T10:01:31.313Z,51.14
2018-08-20T10:02:31.269Z,50.72
2018-08-20T10:03:31.259Z,50.72
2018-08-20T10:04:31.305Z,50.85
2018-08-20T10:05:31.275Z,50.62
2018-08-20T10:06:31.348Z,50.71
2018-08-20T10:07:31.521Z,50.37
2018-08-20T10:08:32.097Z,50.34
2018-08-20T10:09:31.643Z,50.19
2018-08-20T10:10:31.861Z,50.33
2018-08-20T10:11:31.284Z,50.34
2018-08-20T10:12:31.282Z,50.39
2018-08-20T10:13:31.715Z,50.23
2018-08-20T10:14:31.242Z,50.17
2018-08-20T10:15:31.302Z,49.73
2018-08-20T10:16:31.290Z,49.8
2018-08-20T10:17:31.295Z,49.84
2018-08-20T10:18:31.822Z,49.95
2018-08-20T10:19:31.820Z,49.89
2018-08-20T10:20:31.571Z,49.97
2018-08-20T10:21:31.355Z,49.68
2018-08-20T10:22:31.855Z,49.55
2018-08-20T10:23:33.124Z,49.66
2018-08-20T10:24:31.479Z,49.33
2018-08-20T10:25:31.269Z,49.29
2018-08-20T10:26:31.435Z,49.57
2018-08-20T10:27:31.226Z,49.34
2018-08-20T10:28:31.240Z,49.18
2018-08-20T10:29:31.731Z,49.59
2018-08-20T10:30:31.704Z,49.14
2018-08-20T10:31:31.343Z,49.36
2018-08-20T10:32:31.744Z,48.94
2018-08-20T10:33:31.434Z,48.94
2018-08-20T10:34:31.273Z,48.58
2018-08-20T10:35:31.276Z,48.72
2018-08-20T10:36:31.261Z,48.89
2018-08-20T10:37:31.661Z,48.59
2018-08-20T10:38:31.302Z,48.78
2018-08-20T10:39:31.678Z,48.83
2018-08-20T10:40:31.360Z,48.99
2018-08-20T10:41:31.241Z,49.18
2018-08-20T10:42:31.532Z,48.69
2018-08-20T10:43:31.370Z,48.44
2018-08-20T10:44:31.220Z,48.47
2018-08-20T10:45:31.498Z,48.96
2018-08-20T10:46:31.241Z,48.48
2018-08-20T10:47:32.291Z,48.88
2018-08-20T10:48:31.320Z,49.01
2018-08-20T10:49:31.706Z,49.28
2018-08-20T10:50:31.355Z,49.03
2018-08-20T10:51:31.257Z,49.13
2018-08-20T10:52:31.298Z,49.5
2018-08-20T10:53:31.478Z,49.5
2018-08-20T10:54:31.250Z,48.79
2018-08-20T10:55:31.252Z,48.93
2018-08-20T10:56:31.307Z,48.87
2018-08-20T10:57:31.275Z,48.98
2018-08-20T10:58:31.363Z,48.97
2018-08-20T10:59:31.928Z,48.83
2018-08-20T11:00:31.233Z,48.82
2018-08-20T11:01:31.806Z,49.17
2018-08-20T11:02:31.263Z,49.26
2018-08-20T11:03:31.363Z,49.27
2018-08-20T11:04:31.829Z,49.17
2018-08-20T11:05:31.276Z,49.3
2018-08-20T11:06:31.297Z,48.68
2018-08-20T11:07:31.262Z,48.56
2018-08-20T11:08:31.323Z,48.53
2018-08-20T11:09:31.261Z,48.5
2018-08-20T11:10:31.278Z,48.72
2018-08-20T11:11:31.219Z,48.8
2018-08-20T11:12:31.882Z,48.92
2018-08-20T11:13:31.408Z,48.64
2018-08-20T11:14:31.384Z,48.44
2018-08-20T11:15:31.308Z,48.47
2018-08-20T11:16:31.241Z,48.22
2018-08-20T11:17:32.021Z,48.68
2018-08-20T11:18:31.880Z,48.27
2018-08-20T11:19:31.776Z,47.86
2018-08-20T11:20:31.254Z,47.95
2018-08-20T11:21:31.259Z,48.11
2018-08-20T11:22:31.668Z,47.69
2018-08-20T11:23:31.242Z,47.63
2018-08-20T11:24:31.258Z,47.86
2018-08-20T11:25:31.260Z,47.9
2018-08-20T11:26:31.225Z,48.16
2018-08-20T11:27:31.492Z,48.07
2018-08-20T11:28:31.289Z,48.25
2018-08-20T11:29:31.746Z,48.18
2018-08-20T11:30:31.245Z,48.31
2018-08-20T11:31:31.300Z,48.18
2018-08-20T11:32:31.236Z,48.39
2018-08-20T11:33:31.234Z,48.17
2018-08-20T11:34:31.369Z,47.8
2018-08-20T11:35:32.279Z,47.57
2018-08-20T11:36:31.491Z,47.66
2018-08-20T11:37:31.253Z,47.62
2018-08-20T11:38:31.221Z,47.59
2018-08-20T11:39:31.875Z,47.79
2018-08-20T11:40:31.217Z,47.47
2018-08-20T11:41:31.234Z,47.56
2018-08-20T11:42:31.284Z,47.67
2018-08-20T11:43:31.516Z,47.91
2018-08-20T11:44:31.264Z,48.13
2018-08-20T11:45:31.447Z,47.72
2018-08-20T11:46:31.216Z,47.54
2018-08-20T11:47:31.286Z,47.78
2018-08-20T11:48:31.290Z,47.76
2018-08-20T11:49:31.692Z,47.53
2018-08-20T11:50:31.240Z,47.52
2018-08-20T11:51:31.271Z,47.64
2018-08-20T11:52:31.296Z,47.7
2018-08-20T11:53:31.261Z,47.69
2018-08-20T11:54:31.315Z,47.75
2018-08-20T11:55:31.839Z,47.89
2018-08-20T11:56:31.395Z,47.76
2018-08-20T11:57:31.292Z,47.72
2018-08-20T11:58:31.271Z,47.84
2018-08-20T11:59:31.778Z,47.84
2018-08-20T12:00:31.522Z,47.98
2018-08-20T12:01:31.220Z,47.89
2018-08-20T12:02:31.377Z,48.03
2018-08-20T12:03:31.262Z,48.21
2018-08-20T12:04:31.271Z,48.4
2018-08-20T12:05:31.218Z,48.85
2018-08-20T12:06:31.271Z,48.63
2018-08-20T12:07:31.525Z,48.48
2018-08-20T12:08:31.269Z,48.32
2018-08-20T12:09:31.757Z,47.99
2018-08-20T12:10:31.285Z,48.47
2018-08-20T12:11:31.253Z,48.5
2018-08-20T12:12:31.331Z,48.42
2018-08-20T12:13:31.300Z,48.38
2018-08-20T12:14:32.159Z,48.32
2018-08-20T12:15:31.322Z,48.06
2018-08-20T12:16:31.467Z,48.01
2018-08-20T12:17:31.371Z,48.33
2018-08-20T12:18:31.480Z,48.69
2018-08-20T12:19:31.788Z,48.62
2018-08-20T12:20:31.358Z,48.57
2018-08-20T12:21:31.248Z,48.52
2018-08-20T12:22:31.686Z,48.12
2018-08-20T12:23:31.243Z,48.39
2018-08-20T12:24:31.274Z,48.37
2018-08-20T12:25:31.475Z,48.66
2018-08-20T12:26:31.233Z,48.63
2018-08-20T12:27:31.270Z,48.51
2018-08-20T12:28:31.389Z,48.16
2018-08-20T12:29:31.225Z,48.26
2018-08-20T12:30:31.394Z,48.31
2018-08-20T12:31:31.249Z,48.19
2018-08-20T12:32:31.245Z,48.18
2018-08-20T12:33:31.251Z,47.95
2018-08-20T12:34:31.265Z,48.12
2018-08-20T12:35:31.545Z,48.19
2018-08-20T12:36:31.208Z,48.06
2018-08-20T12:37:31.234Z,47.94
2018-08-20T12:38:31.228Z,48.35
2018-08-20T12:39:32.613Z,48.26
2018-08-20T12:40:31.775Z,48.27
2018-08-20T12:41:31.263Z,48.17
2018-08-20T12:42:31.557Z,48.26
2018-08-20T12:43:31.231Z,48.25
2018-08-20T12:44:31.232Z,48.39
2018-08-20T12:45:31.217Z,48.22
2018-08-20T12:46:31.248Z,48.34
2018-08-20T12:47:31.852Z,48.47
2018-08-20T12:48:31.268Z,48.19
2018-08-20T12:49:31.189Z,48.39
2018-08-20T12:50:31.231Z,48
2018-08-20T12:51:31.250Z,48.24
2018-08-20T12:52:31.230Z,48.14
2018-08-20T12:53:31.383Z,48.33
2018-08-20T12:54:31.247Z,48.29
2018-08-20T12:55:31.460Z,47.93